Shannon, North Carolina
Current Conditions -  °F | °C
As of 8:52 AM on Saturday 22 Nov 2014 (Local Time) from KMEB Reporting Station
Clear Clear  
Wind Chill: 31°   Ceiling: Unl
Heat Index: 35°   Visibility: 10mi
Dew Point: 20°   Wind: 5mph
Humidity: 54%   Direction: 60°ENE
Pressure: 30.58"   Gusts: NA
Location:  34.85°N, 79.14°W
Report Text: KMEB 221352Z AUTO 06004KT 10SM CLR 02/M07 A3058 RMK AO2 SLP357 T00171067
Loading
Personal Weather Stations






























Interactive Weather Map New forecast layout! Learn more

10-Day Weather Forecast

Advertisements
Track Severe Weather on mobile